Time,TemperatureF,DewpointF,PressureIn,WindDirection,WindDirectionDegrees,WindSpeedMPH,WindSpeedGustMPH,Humidity,HourlyPrecipIn,Conditions,Clouds,dailyrainin,SoftwareType,DateUTC
2013-02-01 00:03:00,27.0,13.0,29.84,West,259,0.0,4.0,54,0.00,,,0.58,,2013-02-01 05:03:00,
2013-02-01 00:12:00,27.0,13.0,29.84,West,259,0.0,4.0,54,0.00,,,0.58,,2013-02-01 05:12:00,
2013-02-01 00:22:00,28.0,14.0,29.83,West,261,2.0,5.0,54,0.00,,,0.35,,2013-02-01 05:22:00,
2013-02-01 00:32:00,27.0,13.0,29.82,West,260,1.0,3.0,55,0.00,,,0.35,,2013-02-01 05:32:00,
2013-02-01 00:42:00,27.0,13.0,29.82,West,260,1.0,3.0,55,0.00,,,0.35,,2013-02-01 05:42:00,
2013-02-01 00:52:00,28.0,13.0,29.82,West,259,0.0,3.0,53,0.00,,,0.35,,2013-02-01 05:52:00,
2013-02-01 01:02:00,27.0,12.0,29.82,WSW,255,0.0,5.0,53,0.00,,,0.35,,2013-02-01 06:02:00,
2013-02-01 01:11:00,27.0,12.0,29.82,WSW,255,0.0,5.0,53,0.00,,,0.35,,2013-02-01 06:11:00,
2013-02-01 01:22:00,27.0,13.0,29.82,WSW,255,0.0,3.0,56,0.00,,,0.13,,2013-02-01 06:22:00,
2013-02-01 01:32:00,26.0,13.0,29.81,WSW,255,1.0,3.0,58,0.00,,,0.13,,2013-02-01 06:32:00,
2013-02-01 01:42:00,26.0,13.0,29.81,WSW,255,1.0,3.0,58,0.00,,,0.13,,2013-02-01 06:42:00,
2013-02-01 01:52:00,26.0,13.0,29.81,WSW,255,1.0,2.0,57,0.00,,,0.13,,2013-02-01 06:52:00,
2013-02-01 02:02:00,27.0,13.0,29.81,WSW,255,1.0,3.0,56,0.00,,,0.13,,2013-02-01 07:02:00,
2013-02-01 02:12:00,28.0,15.0,29.82,WSW,254,1.0,3.0,57,0.00,,,0.06,,2013-02-01 07:12:00,
2013-02-01 02:22:00,28.0,15.0,29.82,WSW,254,1.0,3.0,57,0.00,,,0.06,,2013-02-01 07:22:00,
2013-02-01 02:32:00,28.0,16.0,29.81,WSW,254,1.0,4.0,59,0.00,,,0.06,,2013-02-01 07:32:00,
2013-02-01 02:42:00,28.0,16.0,29.81,WSW,254,1.0,4.0,59,0.00,,,0.06,,2013-02-01 07:42:00,
2013-02-01 02:52:00,28.0,16.0,29.81,WSW,256,0.0,5.0,60,0.00,,,0.06,,2013-02-01 07:52:00,
2013-02-01 03:01:00,28.0,15.0,29.80,WSW,256,1.0,2.0,58,0.00,,,0.06,,2013-02-01 08:01:00,
2013-02-01 03:11:00,28.0,15.0,29.80,WSW,256,1.0,2.0,58,0.00,,,0.06,,2013-02-01 08:11:00,
2013-02-01 03:21:00,28.0,15.0,29.80,WSW,256,0.0,2.0,57,0.00,,,0.01,,2013-02-01 08:21:00,
2013-02-01 03:32:00,28.0,14.0,29.80,WSW,254,2.0,4.0,56,0.00,,,0.01,,2013-02-01 08:32:00,
2013-02-01 03:42:00,28.0,14.0,29.80,WSW,254,2.0,4.0,56,0.00,,,0.01,,2013-02-01 08:42:00,
2013-02-01 03:52:00,29.0,15.0,29.80,SW,227,1.0,3.0,55,0.00,,,0.01,,2013-02-01 08:52:00,
2013-02-01 04:01:00,29.0,16.0,29.80,West,260,1.0,4.0,58,0.00,,,0.01,,2013-02-01 09:01:00,
2013-02-01 04:11:00,29.0,16.0,29.80,West,260,1.0,4.0,58,0.00,,,0.01,,2013-02-01 09:11:00,
2013-02-01 04:21:00,29.0,16.0,29.80,West,260,0.0,2.0,59,0.00,,,0.00,,2013-02-01 09:21:00,
2013-02-01 04:32:00,30.0,17.0,29.81,WNW,295,5.0,9.0,59,0.00,,,0.00,,2013-02-01 09:32:00,
2013-02-01 04:42:00,30.0,17.0,29.81,WNW,295,5.0,9.0,59,0.00,,,0.00,,2013-02-01 09:42:00,
2013-02-01 04:52:00,27.0,19.0,29.82,NNW,338,9.0,17.0,70,0.00,,,0.00,,2013-02-01 09:52:00,
2013-02-01 05:01:00,26.0,19.0,29.83,NW,322,6.0,12.0,75,0.00,,,0.00,,2013-02-01 10:01:00,
2013-02-01 05:11:00,26.0,19.0,29.83,NW,322,6.0,12.0,75,0.00,,,0.00,,2013-02-01 10:11:00,
2013-02-01 05:21:00,26.0,19.0,29.83,NNW,329,9.0,13.0,76,0.00,,,0.00,,2013-02-01 10:21:00,
2013-02-01 05:32:00,25.0,19.0,29.85,NNW,340,13.0,22.0,77,0.00,,,0.00,,2013-02-01 10:32:00,
2013-02-01 05:42:00,25.0,19.0,29.85,NNW,340,13.0,22.0,77,0.00,,,0.00,,2013-02-01 10:42:00,
2013-02-01 05:53:00,25.0,19.0,29.86,NNW,329,7.0,15.0,76,0.00,,,0.00,,2013-02-01 10:53:00,
2013-02-01 06:02:00,25.0,18.0,29.86,NW,315,5.0,17.0,75,0.00,,,0.00,,2013-02-01 11:02:00,
2013-02-01 06:11:00,25.0,18.0,29.86,NW,315,5.0,17.0,75,0.00,,,0.00,,2013-02-01 11:11:00,
2013-02-01 06:22:00,26.0,18.0,29.86,NW,312,3.0,7.0,72,0.00,,,0.00,,2013-02-01 11:22:00,
2013-02-01 06:32:00,26.0,18.0,29.86,NW,313,2.0,3.0,70,0.00,,,0.00,,2013-02-01 11:32:00,
2013-02-01 06:42:00,26.0,18.0,29.86,NW,313,2.0,3.0,70,0.00,,,0.00,,2013-02-01 11:42:00,
2013-02-01 06:53:00,26.0,17.0,29.88,NW,309,4.0,7.0,68,0.00,,,0.00,,2013-02-01 11:53:00,
2013-02-01 07:03:00,26.0,16.0,29.90,NNW,332,11.0,16.0,65,0.00,,,0.00,,2013-02-01 12:03:00,
2013-02-01 07:12:00,26.0,16.0,29.90,NNW,332,11.0,16.0,65,0.00,,,0.00,,2013-02-01 12:12:00,
2013-02-01 07:23:00,25.0,15.0,29.90,NW,304,10.0,15.0,64,0.00,,,0.00,,2013-02-01 12:23:00,
2013-02-01 07:32:00,25.0,13.0,29.91,NW,308,12.0,17.0,59,0.00,,,0.00,,2013-02-01 12:32:00,
2013-02-01 07:42:00,25.0,13.0,29.91,NW,308,12.0,17.0,59,0.00,,,0.00,,2013-02-01 12:42:00,
2013-02-01 07:52:00,24.0,11.0,29.92,NW,323,13.0,22.0,56,0.00,,,0.00,,2013-02-01 12:52:00,
2013-02-01 08:02:00,24.0,9.0,29.93,NW,325,12.0,23.0,53,0.00,,,0.00,,2013-02-01 13:02:00,
2013-02-01 08:11:00,24.0,9.0,29.93,NW,325,12.0,23.0,53,0.00,,,0.00,,2013-02-01 13:11:00,
2013-02-01 08:22:00,24.0,11.0,29.95,NNW,340,15.0,23.0,56,0.00,,,0.00,,2013-02-01 13:22:00,
2013-02-01 08:33:00,24.0,9.0,29.97,NW,304,13.0,23.0,53,0.00,,,0.00,,2013-02-01 13:33:00,
2013-02-01 08:42:00,24.0,9.0,29.97,NW,304,13.0,23.0,53,0.00,,,0.00,,2013-02-01 13:42:00,
2013-02-01 08:53:00,24.0,9.0,29.98,NW,315,12.0,26.0,52,0.00,,,0.00,,2013-02-01 13:53:00,
2013-02-01 09:03:00,24.0,8.0,30.00,NW,320,18.0,26.0,49,0.00,,,0.00,,2013-02-01 14:03:00,
2013-02-01 09:11:00,24.0,8.0,30.01,NW,314,12.0,17.0,50,0.00,,,0.00,,2013-02-01 14:11:00,
2013-02-01 09:22:00,24.0,8.0,30.01,NW,314,12.0,17.0,50,0.00,,,0.00,,2013-02-01 14:22:00,
2013-02-01 09:32:00,24.0,8.0,30.02,WNW,301,10.0,25.0,50,0.00,,,0.00,,2013-02-01 14:32:00,
2013-02-01 09:42:00,24.0,8.0,30.02,WNW,301,10.0,25.0,50,0.00,,,0.00,,2013-02-01 14:42:00,
2013-02-01 09:53:00,24.0,8.0,30.02,West,275,13.0,20.0,50,0.00,,,0.00,,2013-02-01 14:53:00,
2013-02-01 10:02:00,24.0,8.0,30.03,NW,310,12.0,22.0,50,0.00,,,0.00,,2013-02-01 15:02:00,
2013-02-01 10:12:00,24.0,8.0,30.05,WNW,292,13.0,20.0,50,0.00,,,0.00,,2013-02-01 15:12:00,
2013-02-01 10:22:00,24.0,8.0,30.05,WNW,292,13.0,20.0,50,0.00,,,0.00,,2013-02-01 15:22:00,
2013-02-01 10:33:00,25.0,9.0,30.06,NW,319,13.0,22.0,50,0.00,,,0.00,,2013-02-01 15:33:00,
2013-02-01 10:42:00,25.0,9.0,30.06,NW,319,13.0,22.0,50,0.00,,,0.00,,2013-02-01 15:42:00,
2013-02-01 10:52:00,25.0,8.0,30.07,NNW,333,12.0,24.0,48,0.00,,,0.00,,2013-02-01 15:52:00,
2013-02-01 11:03:00,25.0,8.0,30.07,NW,306,9.0,20.0,48,0.00,,,0.00,,2013-02-01 16:03:00,
2013-02-01 11:11:00,25.0,7.0,30.08,NW,309,15.0,21.0,46,0.00,,,0.00,,2013-02-01 16:11:00,
2013-02-01 11:22:00,25.0,7.0,30.08,NW,309,15.0,21.0,46,0.00,,,0.00,,2013-02-01 16:22:00,
2013-02-01 11:33:00,25.0,8.0,30.09,NW,305,12.0,22.0,47,0.00,,,0.00,,2013-02-01 16:33:00,
2013-02-01 11:43:00,25.0,7.0,30.09,NW,306,9.0,20.0,45,0.00,,,0.00,,2013-02-01 16:43:00,
2013-02-01 11:52:00,25.0,7.0,30.09,NW,306,9.0,20.0,45,0.00,,,0.00,,2013-02-01 16:52:00,
2013-02-01 12:02:00,26.0,8.0,30.09,WNW,288,14.0,23.0,46,0.00,,,0.00,,2013-02-01 17:02:00,
2013-02-01 12:12:00,26.0,9.0,30.09,WNW,285,16.0,25.0,47,0.00,,,0.00,,2013-02-01 17:12:00,
2013-02-01 12:22:00,26.0,9.0,30.09,WNW,285,16.0,25.0,47,0.00,,,0.00,,2013-02-01 17:22:00,
2013-02-01 12:32:00,25.0,6.0,30.09,West,277,17.0,28.0,43,0.00,,,0.00,,2013-02-01 17:32:00,
2013-02-01 12:42:00,25.0,6.0,30.09,West,277,17.0,28.0,43,0.00,,,0.00,,2013-02-01 17:42:00,
2013-02-01 12:53:00,26.0,9.0,30.10,NW,321,13.0,24.0,47,0.00,,,0.00,,2013-02-01 17:53:00,
2013-02-01 13:03:00,26.0,8.0,30.10,NW,312,15.0,23.0,46,0.00,,,0.00,,2013-02-01 18:03:00,
2013-02-01 13:12:00,26.0,8.0,30.10,NW,312,15.0,23.0,46,0.00,,,0.00,,2013-02-01 18:12:00,
2013-02-01 13:22:00,26.0,8.0,30.10,WNW,284,14.0,22.0,45,0.00,,,0.00,,2013-02-01 18:22:00,
2013-02-01 13:32:00,25.0,6.0,30.11,WNW,299,11.0,22.0,44,0.00,,,0.00,,2013-02-01 18:32:00,
2013-02-01 13:42:00,25.0,6.0,30.11,WNW,299,11.0,22.0,44,0.00,,,0.00,,2013-02-01 18:42:00,
2013-02-01 13:53:00,25.0,6.0,30.11,NW,315,14.0,29.0,44,0.00,,,0.00,,2013-02-01 18:53:00,
2013-02-01 14:03:00,26.0,7.0,30.11,NW,310,13.0,24.0,44,0.00,,,0.00,,2013-02-01 19:03:00,
2013-02-01 14:12:00,26.0,7.0,30.11,NW,310,13.0,24.0,44,0.00,,,0.00,,2013-02-01 19:12:00,
2013-02-01 14:21:00,25.0,6.0,30.12,NW,311,12.0,20.0,43,0.00,,,0.00,,2013-02-01 19:21:00,
2013-02-01 14:32:00,25.0,6.0,30.13,NW,313,14.0,22.0,44,0.00,,,0.00,,2013-02-01 19:32:00,
2013-02-01 14:42:00,25.0,6.0,30.13,NW,313,14.0,22.0,44,0.00,,,0.00,,2013-02-01 19:42:00,
2013-02-01 14:52:00,24.0,5.0,30.14,NW,305,12.0,25.0,44,0.00,,,0.00,,2013-02-01 19:52:00,
2013-02-01 15:02:00,25.0,5.0,30.14,WNW,298,13.0,20.0,41,0.00,,,0.00,,2013-02-01 20:02:00,
2013-02-01 15:11:00,24.0,4.0,30.15,NW,313,11.0,23.0,42,0.00,,,0.00,,2013-02-01 20:11:00,
2013-02-01 15:21:00,24.0,4.0,30.15,NW,313,11.0,23.0,42,0.00,,,0.00,,2013-02-01 20:21:00,
2013-02-01 15:32:00,25.0,5.0,30.16,NW,304,14.0,21.0,41,0.00,,,0.00,,2013-02-01 20:32:00,
2013-02-01 15:42:00,24.0,5.0,30.15,WNW,286,14.0,21.0,43,0.00,,,0.00,,2013-02-01 20:42:00,
2013-02-01 15:52:00,24.0,5.0,30.15,WNW,286,14.0,21.0,43,0.00,,,0.00,,2013-02-01 20:52:00,
2013-02-01 16:02:00,25.0,5.0,30.16,NW,316,14.0,24.0,41,0.00,,,0.00,,2013-02-01 21:02:00,
2013-02-01 16:12:00,25.0,5.0,30.16,NW,316,14.0,24.0,41,0.00,,,0.00,,2013-02-01 21:12:00,
2013-02-01 16:22:00,24.0,4.0,30.17,WNW,294,12.0,19.0,42,0.00,,,0.00,,2013-02-01 21:22:00,
2013-02-01 16:32:00,24.0,5.0,30.18,WNW,284,14.0,21.0,43,0.00,,,0.00,,2013-02-01 21:32:00,
2013-02-01 16:42:00,24.0,5.0,30.18,WNW,284,14.0,21.0,43,0.00,,,0.00,,2013-02-01 21:42:00,
2013-02-01 16:52:00,23.0,4.0,30.19,WNW,301,11.0,20.0,43,0.00,,,0.00,,2013-02-01 21:52:00,
2013-02-01 17:02:00,23.0,4.0,30.19,WNW,285,12.0,17.0,44,0.00,,,0.00,,2013-02-01 22:02:00,
2013-02-01 17:11:00,23.0,4.0,30.19,WNW,285,12.0,17.0,44,0.00,,,0.00,,2013-02-01 22:11:00,
2013-02-01 17:21:00,22.0,4.0,30.20,NW,307,10.0,18.0,45,0.00,,,0.00,,2013-02-01 22:21:00,
2013-02-01 17:32:00,22.0,4.0,30.20,NW,315,8.0,14.0,45,0.00,,,0.00,,2013-02-01 22:32:00,
2013-02-01 17:42:00,22.0,4.0,30.20,NW,315,8.0,14.0,45,0.00,,,0.00,,2013-02-01 22:42:00,
2013-02-01 17:52:00,22.0,4.0,30.21,NW,311,8.0,16.0,46,0.00,,,0.00,,2013-02-01 22:52:00,
2013-02-01 18:02:00,22.0,4.0,30.21,WNW,302,10.0,15.0,45,0.00,,,0.00,,2013-02-01 23:02:00,
2013-02-01 18:11:00,22.0,4.0,30.21,WNW,302,10.0,15.0,45,0.00,,,0.00,,2013-02-01 23:11:00,
2013-02-01 18:22:00,21.0,3.0,30.22,WNW,303,9.0,17.0,45,0.00,,,0.00,,2013-02-01 23:22:00,
2013-02-01 18:32:00,21.0,3.0,30.23,WNW,291,10.0,18.0,44,0.00,,,0.00,,2013-02-01 23:32:00,
2013-02-01 18:42:00,21.0,3.0,30.23,WNW,291,10.0,18.0,44,0.00,,,0.00,,2013-02-01 23:42:00,
2013-02-01 18:52:00,21.0,3.0,30.25,NW,305,8.0,13.0,45,0.00,,,0.00,,2013-02-01 23:52:00,
2013-02-01 19:02:00,21.0,4.0,30.26,NW,313,4.0,11.0,46,0.00,,,0.00,,2013-02-02 00:02:00,
2013-02-01 19:11:00,21.0,4.0,30.26,NW,313,4.0,11.0,46,0.00,,,0.00,,2013-02-02 00:11:00,
2013-02-01 19:21:00,21.0,3.0,30.27,NW,322,11.0,16.0,45,0.00,,,0.00,,2013-02-02 00:21:00,
2013-02-01 19:32:00,21.0,3.0,30.27,West,281,9.0,14.0,45,0.00,,,0.00,,2013-02-02 00:32:00,
2013-02-01 19:42:00,21.0,3.0,30.27,West,281,9.0,14.0,45,0.00,,,0.00,,2013-02-02 00:42:00,
2013-02-01 19:52:00,21.0,4.0,30.28,WNW,290,6.0,14.0,46,0.00,,,0.00,,2013-02-02 00:52:00,
2013-02-01 20:02:00,20.0,3.0,30.28,WNW,285,4.0,8.0,47,0.00,,,0.00,,2013-02-02 01:02:00,
2013-02-01 20:11:00,20.0,3.0,30.28,WNW,285,4.0,8.0,47,0.00,,,0.00,,2013-02-02 01:11:00,
2013-02-01 20:21:00,20.0,3.0,30.28,NW,317,7.0,13.0,47,0.00,,,0.00,,2013-02-02 01:21:00,
2013-02-01 20:32:00,20.0,3.0,30.29,NW,304,6.0,14.0,47,0.00,,,0.00,,2013-02-02 01:32:00,
2013-02-01 20:42:00,20.0,3.0,30.29,NW,304,6.0,14.0,47,0.00,,,0.00,,2013-02-02 01:42:00,
2013-02-01 20:52:00,20.0,4.0,30.28,WNW,289,6.0,11.0,48,0.00,,,0.00,,2013-02-02 01:52:00,
2013-02-01 21:01:00,20.0,3.0,30.28,NW,304,8.0,13.0,47,0.00,,,0.00,,2013-02-02 02:01:00,
2013-02-01 21:11:00,20.0,3.0,30.28,NW,304,8.0,13.0,47,0.00,,,0.00,,2013-02-02 02:11:00,
2013-02-01 21:22:00,20.0,3.0,30.29,NW,313,8.0,13.0,47,0.00,,,0.00,,2013-02-02 02:22:00,
2013-02-01 21:32:00,20.0,3.0,30.29,NW,310,6.0,11.0,46,0.00,,,0.00,,2013-02-02 02:32:00,
2013-02-01 21:42:00,20.0,3.0,30.29,NW,310,6.0,11.0,46,0.00,,,0.00,,2013-02-02 02:42:00,
2013-02-01 21:52:00,19.0,3.0,30.30,WNW,286,4.0,9.0,48,0.00,,,0.00,,2013-02-02 02:52:00,
2013-02-01 22:02:00,19.0,3.0,30.30,WNW,300,4.0,8.0,50,0.00,,,0.00,,2013-02-02 03:02:00,
2013-02-01 22:11:00,19.0,3.0,30.30,NW,304,5.0,8.0,50,0.00,,,0.00,,2013-02-02 03:11:00,
2013-02-01 22:22:00,19.0,3.0,30.30,NW,304,5.0,8.0,50,0.00,,,0.00,,2013-02-02 03:22:00,
2013-02-01 22:32:00,19.0,4.0,30.30,WNW,295,6.0,11.0,51,0.00,,,0.00,,2013-02-02 03:32:00,
2013-02-01 22:42:00,19.0,3.0,30.31,WNW,286,6.0,11.0,50,0.00,,,0.00,,2013-02-02 03:42:00,
2013-02-01 22:52:00,19.0,3.0,30.31,WNW,286,6.0,11.0,50,0.00,,,0.00,,2013-02-02 03:52:00,
2013-02-01 23:02:00,19.0,3.0,30.31,NW,313,6.0,11.0,50,0.00,,,0.00,,2013-02-02 04:02:00,
2013-02-01 23:11:00,19.0,3.0,30.31,NW,313,6.0,11.0,50,0.00,,,0.00,,2013-02-02 04:11:00,
2013-02-01 23:22:00,19.0,3.0,30.31,WNW,286,7.0,10.0,50,0.00,,,0.00,,2013-02-02 04:22:00,
2013-02-01 23:32:00,18.0,3.0,30.32,WNW,288,4.0,12.0,51,0.00,,,0.00,,2013-02-02 04:32:00,
2013-02-01 23:42:00,18.0,3.0,30.32,WNW,288,4.0,12.0,51,0.00,,,0.00,,2013-02-02 04:42:00,
2013-02-01 23:52:00,18.0,3.0,30.32,NW,306,3.0,9.0,52,0.00,,,0.00,,2013-02-02 04:52:00,